sensor_id;sensor_type;location;lat;lon;timestamp;P1;durP1;ratioP1;P2;durP2;ratioP2
22146;SDS011;13074;48.298;14.424;2024-01-11T00:02:22;43.43;;;19.17;;
22146;SDS011;13074;48.298;14.424;2024-01-11T00:04:51;38.83;;;19.13;;
22146;SDS011;13074;48.298;14.424;2024-01-11T00:07:19;43.53;;;19.67;;
22146;SDS011;13074;48.298;14.424;2024-01-11T00:09:46;36.73;;;18.73;;
22146;SDS011;13074;48.298;14.424;2024-01-11T00:12:14;50.00;;;20.57;;
22146;SDS011;13074;48.298;14.424;2024-01-11T00:14:42;39.50;;;19.77;;
22146;SDS011;13074;48.298;14.424;2024-01-11T00:17:10;40.30;;;19.33;;
22146;SDS011;13074;48.298;14.424;2024-01-11T00:19:38;35.33;;;18.47;;
22146;SDS011;13074;48.298;14.424;2024-01-11T00:22:08;46.23;;;20.20;;
22146;SDS011;13074;48.298;14.424;2024-01-11T00:24:35;42.30;;;21.03;;
22146;SDS011;13074;48.298;14.424;2024-01-11T00:27:04;42.53;;;20.43;;
22146;SDS011;13074;48.298;14.424;2024-01-11T00:29:32;37.07;;;17.87;;
22146;SDS011;13074;48.298;14.424;2024-01-11T00:31:59;44.10;;;19.90;;
22146;SDS011;13074;48.298;14.424;2024-01-11T00:34:27;44.83;;;19.97;;
22146;SDS011;13074;48.298;14.424;2024-01-11T00:36:55;42.90;;;18.97;;
22146;SDS011;13074;48.298;14.424;2024-01-11T00:39:24;38.83;;;20.07;;
22146;SDS011;13074;48.298;14.424;2024-01-11T00:41:53;40.23;;;19.13;;
22146;SDS011;13074;48.298;14.424;2024-01-11T00:44:20;40.27;;;20.10;;
22146;SDS011;13074;48.298;14.424;2024-01-11T00:46:48;45.47;;;21.03;;
22146;SDS011;13074;48.298;14.424;2024-01-11T00:49:16;45.50;;;20.13;;
22146;SDS011;13074;48.298;14.424;2024-01-11T00:56:56;44.33;;;19.90;;
22146;SDS011;13074;48.298;14.424;2024-01-11T00:59:23;42.77;;;21.30;;
22146;SDS011;13074;48.298;14.424;2024-01-11T01:01:51;45.17;;;21.43;;
22146;SDS011;13074;48.298;14.424;2024-01-11T01:04:21;43.57;;;21.47;;
22146;SDS011;13074;48.298;14.424;2024-01-11T01:06:50;42.77;;;21.43;;
22146;SDS011;13074;48.298;14.424;2024-01-11T01:09:18;48.47;;;21.73;;
22146;SDS011;13074;48.298;14.424;2024-01-11T01:11:46;44.00;;;21.67;;
22146;SDS011;13074;48.298;14.424;2024-01-11T01:14:15;42.60;;;22.23;;
22146;SDS011;13074;48.298;14.424;2024-01-11T01:16:43;44.23;;;22.60;;
22146;SDS011;13074;48.298;14.424;2024-01-11T01:19:11;42.93;;;20.07;;
22146;SDS011;13074;48.298;14.424;2024-01-11T01:21:38;47.37;;;21.70;;
22146;SDS011;13074;48.298;14.424;2024-01-11T01:24:06;47.97;;;21.90;;
22146;SDS011;13074;48.298;14.424;2024-01-11T01:26:34;45.93;;;22.83;;
22146;SDS011;13074;48.298;14.424;2024-01-11T01:29:02;48.57;;;22.30;;
22146;SDS011;13074;48.298;14.424;2024-01-11T01:31:32;52.70;;;24.30;;
22146;SDS011;13074;48.298;14.424;2024-01-11T01:34:02;50.10;;;23.07;;
22146;SDS011;13074;48.298;14.424;2024-01-11T01:36:30;48.80;;;21.00;;
22146;SDS011;13074;48.298;14.424;2024-01-11T01:38:58;44.23;;;23.17;;
22146;SDS011;13074;48.298;14.424;2024-01-11T01:41:26;48.67;;;21.27;;
22146;SDS011;13074;48.298;14.424;2024-01-11T01:43:54;40.10;;;19.93;;
22146;SDS011;13074;48.298;14.424;2024-01-11T01:46:23;43.20;;;21.53;;
22146;SDS011;13074;48.298;14.424;2024-01-11T01:48:53;46.10;;;21.57;;
22146;SDS011;13074;48.298;14.424;2024-01-11T01:51:23;47.63;;;20.07;;
22146;SDS011;13074;48.298;14.424;2024-01-11T01:53:53;42.07;;;20.80;;
22146;SDS011;13074;48.298;14.424;2024-01-11T01:56:22;45.77;;;20.57;;
22146;SDS011;13074;48.298;14.424;2024-01-11T01:58:51;44.87;;;20.10;;
22146;SDS011;13074;48.298;14.424;2024-01-11T02:01:20;48.50;;;21.97;;
22146;SDS011;13074;48.298;14.424;2024-01-11T02:04:14;46.53;;;21.57;;
22146;SDS011;13074;48.298;14.424;2024-01-11T02:07:02;43.43;;;19.40;;
22146;SDS011;13074;48.298;14.424;2024-01-11T02:09:41;50.47;;;22.63;;
22146;SDS011;13074;48.298;14.424;2024-01-11T02:12:27;42.90;;;21.70;;
22146;SDS011;13074;48.298;14.424;2024-01-11T02:15:01;40.13;;;20.63;;
22146;SDS011;13074;48.298;14.424;2024-01-11T02:17:50;36.77;;;19.17;;
22146;SDS011;13074;48.298;14.424;2024-01-11T02:20:26;41.63;;;21.07;;
22146;SDS011;13074;48.298;14.424;2024-01-11T02:23:14;43.13;;;21.80;;
22146;SDS011;13074;48.298;14.424;2024-01-11T02:25:53;34.23;;;19.03;;
22146;SDS011;13074;48.298;14.424;2024-01-11T02:28:22;39.03;;;18.27;;
22146;SDS011;13074;48.298;14.424;2024-01-11T02:31:07;39.77;;;18.43;;
22146;SDS011;13074;48.298;14.424;2024-01-11T02:33:49;36.37;;;17.43;;
22146;SDS011;13074;48.298;14.424;2024-01-11T02:36:27;34.67;;;17.20;;
22146;SDS011;13074;48.298;14.424;2024-01-11T02:38:57;38.70;;;18.27;;
22146;SDS011;13074;48.298;14.424;2024-01-11T02:44:27;35.83;;;16.73;;
22146;SDS011;13074;48.298;14.424;2024-01-11T02:46:59;34.07;;;18.10;;
22146;SDS011;13074;48.298;14.424;2024-01-11T02:49:29;37.37;;;18.10;;
22146;SDS011;13074;48.298;14.424;2024-01-11T02:52:11;37.57;;;18.93;;
22146;SDS011;13074;48.298;14.424;2024-01-11T02:54:47;33.47;;;15.87;;
22146;SDS011;13074;48.298;14.424;2024-01-11T02:57:32;30.93;;;15.83;;
22146;SDS011;13074;48.298;14.424;2024-01-11T03:00:27;35.27;;;16.20;;
22146;SDS011;13074;48.298;14.424;2024-01-11T03:02:59;38.13;;;18.03;;
22146;SDS011;13074;48.298;14.424;2024-01-11T03:05:48;35.97;;;17.57;;
22146;SDS011;13074;48.298;14.424;2024-01-11T03:08:24;36.13;;;17.63;;
22146;SDS011;13074;48.298;14.424;2024-01-11T03:11:13;36.37;;;17.20;;
22146;SDS011;13074;48.298;14.424;2024-01-11T03:13:49;35.83;;;17.73;;
22146;SDS011;13074;48.298;14.424;2024-01-11T03:16:18;34.43;;;18.00;;
22146;SDS011;13074;48.298;14.424;2024-01-11T03:18:58;38.27;;;16.33;;
22146;SDS011;13074;48.298;14.424;2024-01-11T03:21:29;41.20;;;19.17;;
22146;SDS011;13074;48.298;14.424;2024-01-11T03:24:02;37.67;;;17.77;;
22146;SDS011;13074;48.298;14.424;2024-01-11T03:26:37;32.50;;;16.23;;
22146;SDS011;13074;48.298;14.424;2024-01-11T03:32:22;32.70;;;16.93;;
22146;SDS011;13074;48.298;14.424;2024-01-11T03:34:57;36.13;;;18.63;;
22146;SDS011;13074;48.298;14.424;2024-01-11T03:37:28;41.93;;;18.47;;
22146;SDS011;13074;48.298;14.424;2024-01-11T03:40:04;34.93;;;17.83;;
22146;SDS011;13074;48.298;14.424;2024-01-11T03:42:52;41.43;;;19.40;;
22146;SDS011;13074;48.298;14.424;2024-01-11T03:48:51;32.43;;;16.60;;
22146;SDS011;13074;48.298;14.424;2024-01-11T03:51:21;38.27;;;17.43;;
22146;SDS011;13074;48.298;14.424;2024-01-11T03:53:52;46.90;;;20.17;;
22146;SDS011;13074;48.298;14.424;2024-01-11T03:56:23;41.40;;;18.93;;
22146;SDS011;13074;48.298;14.424;2024-01-11T03:59:06;41.23;;;18.87;;
22146;SDS011;13074;48.298;14.424;2024-01-11T04:01:39;46.63;;;21.13;;
22146;SDS011;13074;48.298;14.424;2024-01-11T04:04:16;37.07;;;17.87;;
22146;SDS011;13074;48.298;14.424;2024-01-11T04:09:32;39.00;;;17.93;;
22146;SDS011;13074;48.298;14.424;2024-01-11T04:12:00;42.87;;;19.63;;
22146;SDS011;13074;48.298;14.424;2024-01-11T04:14:39;37.50;;;18.70;;
22146;SDS011;13074;48.298;14.424;2024-01-11T04:17:14;47.50;;;19.23;;
22146;SDS011;13074;48.298;14.424;2024-01-11T04:19:55;41.53;;;18.23;;
22146;SDS011;13074;48.298;14.424;2024-01-11T04:22:37;41.50;;;17.60;;
22146;SDS011;13074;48.298;14.424;2024-01-11T04:25:11;43.00;;;19.33;;
22146;SDS011;13074;48.298;14.424;2024-01-11T04:27:51;42.37;;;18.43;;
22146;SDS011;13074;48.298;14.424;2024-01-11T04:30:27;41.67;;;19.20;;
22146;SDS011;13074;48.298;14.424;2024-01-11T04:33:03;39.87;;;20.43;;
22146;SDS011;13074;48.298;14.424;2024-01-11T04:35:39;34.33;;;17.10;;
22146;SDS011;13074;48.298;14.424;2024-01-11T04:38:17;36.47;;;17.67;;
22146;SDS011;13074;48.298;14.424;2024-01-11T04:40:56;36.63;;;18.33;;
22146;SDS011;13074;48.298;14.424;2024-01-11T04:43:40;35.57;;;16.53;;
22146;SDS011;13074;48.298;14.424;2024-01-11T04:46:14;33.83;;;17.53;;
22146;SDS011;13074;48.298;14.424;2024-01-11T04:48:46;44.33;;;19.87;;
22146;SDS011;13074;48.298;14.424;2024-01-11T04:51:28;42.47;;;20.23;;
22146;SDS011;13074;48.298;14.424;2024-01-11T04:54:04;41.67;;;18.27;;
22146;SDS011;13074;48.298;14.424;2024-01-11T04:57:14;39.83;;;19.13;;
22146;SDS011;13074;48.298;14.424;2024-01-11T04:59:49;41.13;;;18.57;;
22146;SDS011;13074;48.298;14.424;2024-01-11T05:02:28;34.90;;;18.43;;
22146;SDS011;13074;48.298;14.424;2024-01-11T05:05:11;44.07;;;21.07;;
22146;SDS011;13074;48.298;14.424;2024-01-11T05:07:48;43.43;;;19.30;;
22146;SDS011;13074;48.298;14.424;2024-01-11T05:10:32;39.07;;;18.70;;
22146;SDS011;13074;48.298;14.424;2024-01-11T05:13:02;39.47;;;18.40;;
22146;SDS011;13074;48.298;14.424;2024-01-11T05:15:38;39.50;;;17.00;;
22146;SDS011;13074;48.298;14.424;2024-01-11T05:18:14;39.00;;;18.90;;
22146;SDS011;13074;48.298;14.424;2024-01-11T05:20:49;47.97;;;20.97;;
22146;SDS011;13074;48.298;14.424;2024-01-11T05:23:21;42.70;;;18.23;;
22146;SDS011;13074;48.298;14.424;2024-01-11T05:25:57;40.83;;;19.17;;
22146;SDS011;13074;48.298;14.424;2024-01-11T05:28:31;41.63;;;18.30;;
22146;SDS011;13074;48.298;14.424;2024-01-11T05:31:09;34.10;;;17.43;;
22146;SDS011;13074;48.298;14.424;2024-01-11T05:33:39;38.10;;;17.20;;
22146;SDS011;13074;48.298;14.424;2024-01-11T05:36:10;41.63;;;18.70;;
22146;SDS011;13074;48.298;14.424;2024-01-11T05:38:53;37.27;;;18.23;;
22146;SDS011;13074;48.298;14.424;2024-01-11T05:41:35;40.90;;;19.33;;
22146;SDS011;13074;48.298;14.424;2024-01-11T05:44:17;34.87;;;17.57;;
22146;SDS011;13074;48.298;14.424;2024-01-11T05:46:57;37.40;;;18.97;;
22146;SDS011;13074;48.298;14.424;2024-01-11T05:49:27;47.57;;;19.70;;
22146;SDS011;13074;48.298;14.424;2024-01-11T05:52:11;39.13;;;19.27;;
22146;SDS011;13074;48.298;14.424;2024-01-11T05:54:47;43.77;;;20.63;;
22146;SDS011;13074;48.298;14.424;2024-01-11T05:57:37;50.50;;;20.47;;
22146;SDS011;13074;48.298;14.424;2024-01-11T06:00:06;38.27;;;18.97;;
22146;SDS011;13074;48.298;14.424;2024-01-11T06:03:02;42.63;;;17.43;;
22146;SDS011;13074;48.298;14.424;2024-01-11T06:05:30;32.23;;;17.30;;
22146;SDS011;13074;48.298;14.424;2024-01-11T06:08:01;40.03;;;18.60;;
22146;SDS011;13074;48.298;14.424;2024-01-11T06:10:37;42.57;;;18.57;;
22146;SDS011;13074;48.298;14.424;2024-01-11T06:15:51;37.20;;;18.07;;
22146;SDS011;13074;48.298;14.424;2024-01-11T06:18:33;41.23;;;17.53;;
22146;SDS011;13074;48.298;14.424;2024-01-11T06:21:04;49.20;;;20.63;;
22146;SDS011;13074;48.298;14.424;2024-01-11T06:23:41;39.20;;;17.97;;
22146;SDS011;13074;48.298;14.424;2024-01-11T06:32:46;35.57;;;17.20;;
22146;SDS011;13074;48.298;14.424;2024-01-11T06:35:45;47.27;;;18.97;;
22146;SDS011;13074;48.298;14.424;2024-01-11T06:38:56;34.53;;;18.00;;
22146;SDS011;13074;48.298;14.424;2024-01-11T06:42:12;35.33;;;16.53;;
22146;SDS011;13074;48.298;14.424;2024-01-11T06:45:13;39.53;;;17.20;;
22146;SDS011;13074;48.298;14.424;2024-01-11T06:47:59;36.13;;;18.23;;
22146;SDS011;13074;48.298;14.424;2024-01-11T06:50:36;36.10;;;17.33;;
22146;SDS011;13074;48.298;14.424;2024-01-11T06:53:08;42.27;;;20.20;;
22146;SDS011;13074;48.298;14.424;2024-01-11T06:58:58;43.63;;;18.83;;
22146;SDS011;13074;48.298;14.424;2024-01-11T07:01:45;29.47;;;17.53;;
22146;SDS011;13074;48.298;14.424;2024-01-11T07:04:37;38.67;;;18.10;;
22146;SDS011;13074;48.298;14.424;2024-01-11T07:07:21;47.30;;;19.53;;
22146;SDS011;13074;48.298;14.424;2024-01-11T07:10:07;45.60;;;22.47;;
22146;SDS011;13074;48.298;14.424;2024-01-11T07:12:49;43.67;;;19.93;;
22146;SDS011;13074;48.298;14.424;2024-01-11T07:18:46;43.80;;;21.03;;
22146;SDS011;13074;48.298;14.424;2024-01-11T07:21:38;47.60;;;21.17;;
22146;SDS011;13074;48.298;14.424;2024-01-11T07:24:35;37.57;;;20.07;;
22146;SDS011;13074;48.298;14.424;2024-01-11T07:27:05;45.67;;;20.33;;
22146;SDS011;13074;48.298;14.424;2024-01-11T07:29:51;45.67;;;19.63;;
22146;SDS011;13074;48.298;14.424;2024-01-11T07:32:36;43.93;;;20.53;;
22146;SDS011;13074;48.298;14.424;2024-01-11T07:46:49;43.30;;;21.33;;
22146;SDS011;13074;48.298;14.424;2024-01-11T07:49:48;51.13;;;22.43;;
22146;SDS011;13074;48.298;14.424;2024-01-11T07:59:02;45.43;;;22.00;;
22146;SDS011;13074;48.298;14.424;2024-01-11T08:01:48;46.23;;;22.10;;
22146;SDS011;13074;48.298;14.424;2024-01-11T08:04:21;49.30;;;22.63;;
22146;SDS011;13074;48.298;14.424;2024-01-11T08:06:52;44.47;;;21.63;;
22146;SDS011;13074;48.298;14.424;2024-01-11T08:09:35;43.53;;;20.20;;
22146;SDS011;13074;48.298;14.424;2024-01-11T08:12:44;48.67;;;21.07;;
22146;SDS011;13074;48.298;14.424;2024-01-11T08:15:32;53.10;;;23.43;;
22146;SDS011;13074;48.298;14.424;2024-01-11T08:21:18;54.67;;;24.03;;
22146;SDS011;13074;48.298;14.424;2024-01-11T08:24:42;47.03;;;21.80;;
22146;SDS011;13074;48.298;14.424;2024-01-11T08:27:58;41.00;;;20.03;;
22146;SDS011;13074;48.298;14.424;2024-01-11T08:31:05;41.87;;;20.77;;
22146;SDS011;13074;48.298;14.424;2024-01-11T08:40:19;42.20;;;21.03;;
22146;SDS011;13074;48.298;14.424;2024-01-11T08:43:02;40.90;;;21.00;;
22146;SDS011;13074;48.298;14.424;2024-01-11T08:45:37;47.93;;;21.90;;
22146;SDS011;13074;48.298;14.424;2024-01-11T08:48:13;47.07;;;21.37;;
22146;SDS011;13074;48.298;14.424;2024-01-11T08:50:43;52.03;;;22.67;;
22146;SDS011;13074;48.298;14.424;2024-01-11T08:53:12;55.87;;;23.57;;
22146;SDS011;13074;48.298;14.424;2024-01-11T08:55:44;54.20;;;23.93;;
22146;SDS011;13074;48.298;14.424;2024-01-11T08:58:13;48.90;;;23.53;;
22146;SDS011;13074;48.298;14.424;2024-01-11T09:00:41;53.27;;;23.47;;
22146;SDS011;13074;48.298;14.424;2024-01-11T09:03:09;43.30;;;21.30;;
22146;SDS011;13074;48.298;14.424;2024-01-11T09:05:39;43.93;;;21.63;;
22146;SDS011;13074;48.298;14.424;2024-01-11T09:08:06;45.90;;;21.93;;
22146;SDS011;13074;48.298;14.424;2024-01-11T09:10:36;47.97;;;21.50;;
22146;SDS011;13074;48.298;14.424;2024-01-11T09:13:04;44.80;;;20.33;;
22146;SDS011;13074;48.298;14.424;2024-01-11T09:15:32;42.70;;;20.80;;
22146;SDS011;13074;48.298;14.424;2024-01-11T09:18:00;46.60;;;22.50;;
22146;SDS011;13074;48.298;14.424;2024-01-11T09:20:30;42.00;;;19.50;;
22146;SDS011;13074;48.298;14.424;2024-01-11T09:22:58;39.47;;;19.37;;
22146;SDS011;13074;48.298;14.424;2024-01-11T09:25:30;38.07;;;19.60;;
22146;SDS011;13074;48.298;14.424;2024-01-11T09:28:00;41.60;;;20.53;;
22146;SDS011;13074;48.298;14.424;2024-01-11T09:30:28;54.60;;;21.03;;
22146;SDS011;13074;48.298;14.424;2024-01-11T09:32:59;39.20;;;19.53;;
22146;SDS011;13074;48.298;14.424;2024-01-11T09:39:19;42.60;;;20.20;;
22146;SDS011;13074;48.298;14.424;2024-01-11T09:42:49;46.23;;;20.90;;
22146;SDS011;13074;48.298;14.424;2024-01-11T09:48:40;36.70;;;20.33;;
22146;SDS011;13074;48.298;14.424;2024-01-11T09:51:13;39.60;;;20.73;;
22146;SDS011;13074;48.298;14.424;2024-01-11T09:53:41;42.77;;;22.00;;
22146;SDS011;13074;48.298;14.424;2024-01-11T09:56:10;38.40;;;21.77;;
22146;SDS011;13074;48.298;14.424;2024-01-11T09:58:37;41.77;;;21.33;;
22146;SDS011;13074;48.298;14.424;2024-01-11T10:01:10;40.17;;;21.37;;
22146;SDS011;13074;48.298;14.424;2024-01-11T10:03:40;45.17;;;22.77;;
22146;SDS011;13074;48.298;14.424;2024-01-11T10:06:08;42.33;;;23.30;;
22146;SDS011;13074;48.298;14.424;2024-01-11T10:08:37;48.23;;;23.10;;
22146;SDS011;13074;48.298;14.424;2024-01-11T10:11:05;41.70;;;23.43;;
22146;SDS011;13074;48.298;14.424;2024-01-11T10:13:32;47.10;;;22.47;;
22146;SDS011;13074;48.298;14.424;2024-01-11T10:16:07;38.77;;;22.33;;
22146;SDS011;13074;48.298;14.424;2024-01-11T10:18:38;44.57;;;23.87;;
22146;SDS011;13074;48.298;14.424;2024-01-11T10:21:07;43.37;;;23.70;;
22146;SDS011;13074;48.298;14.424;2024-01-11T10:23:35;38.13;;;22.23;;
22146;SDS011;13074;48.298;14.424;2024-01-11T10:26:04;47.17;;;25.20;;
22146;SDS011;13074;48.298;14.424;2024-01-11T10:28:32;43.23;;;23.97;;
22146;SDS011;13074;48.298;14.424;2024-01-11T10:31:02;40.90;;;22.03;;
22146;SDS011;13074;48.298;14.424;2024-01-11T10:33:33;43.60;;;23.80;;
22146;SDS011;13074;48.298;14.424;2024-01-11T10:36:02;49.57;;;25.83;;
22146;SDS011;13074;48.298;14.424;2024-01-11T10:38:30;49.73;;;25.93;;
22146;SDS011;13074;48.298;14.424;2024-01-11T10:41:00;44.03;;;24.07;;
22146;SDS011;13074;48.298;14.424;2024-01-11T10:43:31;47.37;;;24.97;;
22146;SDS011;13074;48.298;14.424;2024-01-11T10:45:59;45.33;;;24.07;;
22146;SDS011;13074;48.298;14.424;2024-01-11T10:48:29;43.27;;;25.63;;
22146;SDS011;13074;48.298;14.424;2024-01-11T10:51:00;44.40;;;24.07;;
22146;SDS011;13074;48.298;14.424;2024-01-11T10:53:38;40.53;;;22.70;;
22146;SDS011;13074;48.298;14.424;2024-01-11T10:56:09;40.87;;;24.93;;
22146;SDS011;13074;48.298;14.424;2024-01-11T10:58:39;37.17;;;24.20;;
22146;SDS011;13074;48.298;14.424;2024-01-11T11:01:07;41.67;;;24.73;;
22146;SDS011;13074;48.298;14.424;2024-01-11T11:03:36;41.93;;;23.20;;
22146;SDS011;13074;48.298;14.424;2024-01-11T11:06:06;38.83;;;23.03;;
22146;SDS011;13074;48.298;14.424;2024-01-11T11:08:34;39.73;;;22.37;;
22146;SDS011;13074;48.298;14.424;2024-01-11T11:11:03;45.73;;;24.93;;
22146;SDS011;13074;48.298;14.424;2024-01-11T11:13:31;37.70;;;23.30;;
22146;SDS011;13074;48.298;14.424;2024-01-11T11:16:00;45.47;;;23.80;;
22146;SDS011;13074;48.298;14.424;2024-01-11T11:18:29;42.50;;;23.83;;
22146;SDS011;13074;48.298;14.424;2024-01-11T11:20:58;43.33;;;23.33;;
22146;SDS011;13074;48.298;14.424;2024-01-11T11:23:27;39.37;;;22.10;;
22146;SDS011;13074;48.298;14.424;2024-01-11T11:25:55;35.93;;;22.07;;
22146;SDS011;13074;48.298;14.424;2024-01-11T11:34:45;45.50;;;21.03;;
22146;SDS011;13074;48.298;14.424;2024-01-11T11:37:38;43.50;;;21.60;;
22146;SDS011;13074;48.298;14.424;2024-01-11T11:40:20;42.20;;;23.27;;
22146;SDS011;13074;48.298;14.424;2024-01-11T11:43:11;62.03;;;29.37;;
22146;SDS011;13074;48.298;14.424;2024-01-11T11:45:40;67.37;;;31.47;;
22146;SDS011;13074;48.298;14.424;2024-01-11T11:51:11;73.73;;;36.97;;
22146;SDS011;13074;48.298;14.424;2024-01-11T11:53:41;94.77;;;40.27;;
22146;SDS011;13074;48.298;14.424;2024-01-11T11:56:23;81.17;;;36.37;;
22146;SDS011;13074;48.298;14.424;2024-01-11T11:58:55;73.53;;;32.33;;
22146;SDS011;13074;48.298;14.424;2024-01-11T12:01:23;62.87;;;30.63;;
22146;SDS011;13074;48.298;14.424;2024-01-11T12:03:55;61.27;;;30.17;;
22146;SDS011;13074;48.298;14.424;2024-01-11T12:06:31;53.47;;;27.93;;
22146;SDS011;13074;48.298;14.424;2024-01-11T12:09:03;64.00;;;28.93;;
22146;SDS011;13074;48.298;14.424;2024-01-11T12:11:33;72.17;;;31.47;;
22146;SDS011;13074;48.298;14.424;2024-01-11T12:14:08;66.30;;;31.30;;
22146;SDS011;13074;48.298;14.424;2024-01-11T12:16:41;55.63;;;29.77;;
22146;SDS011;13074;48.298;14.424;2024-01-11T12:19:19;74.13;;;32.03;;
22146;SDS011;13074;48.298;14.424;2024-01-11T12:21:53;63.53;;;31.80;;
22146;SDS011;13074;48.298;14.424;2024-01-11T12:24:39;67.77;;;32.70;;
22146;SDS011;13074;48.298;14.424;2024-01-11T12:27:22;64.67;;;30.27;;
22146;SDS011;13074;48.298;14.424;2024-01-11T12:30:21;59.57;;;30.53;;
22146;SDS011;13074;48.298;14.424;2024-01-11T12:33:07;63.90;;;30.33;;
22146;SDS011;13074;48.298;14.424;2024-01-11T12:35:49;65.77;;;30.90;;
22146;SDS011;13074;48.298;14.424;2024-01-11T12:38:18;65.43;;;31.20;;
22146;SDS011;13074;48.298;14.424;2024-01-11T12:40:55;62.70;;;30.17;;
22146;SDS011;13074;48.298;14.424;2024-01-11T12:46:36;59.10;;;28.77;;
22146;SDS011;13074;48.298;14.424;2024-01-11T12:49:22;61.90;;;30.57;;
22146;SDS011;13074;48.298;14.424;2024-01-11T12:52:21;57.80;;;27.40;;
22146;SDS011;13074;48.298;14.424;2024-01-11T12:54:53;57.53;;;28.73;;
22146;SDS011;13074;48.298;14.424;2024-01-11T12:57:22;61.90;;;29.03;;
22146;SDS011;13074;48.298;14.424;2024-01-11T12:59:56;68.80;;;29.80;;
22146;SDS011;13074;48.298;14.424;2024-01-11T13:02:45;59.97;;;26.87;;
22146;SDS011;13074;48.298;14.424;2024-01-11T13:05:16;50.37;;;27.13;;
22146;SDS011;13074;48.298;14.424;2024-01-11T13:07:44;59.97;;;26.93;;
22146;SDS011;13074;48.298;14.424;2024-01-11T13:10:14;63.13;;;28.00;;
22146;SDS011;13074;48.298;14.424;2024-01-11T13:12:43;58.80;;;26.73;;
22146;SDS011;13074;48.298;14.424;2024-01-11T13:17:59;50.53;;;25.77;;
22146;SDS011;13074;48.298;14.424;2024-01-11T13:20:33;57.53;;;28.33;;
22146;SDS011;13074;48.298;14.424;2024-01-11T13:23:17;49.83;;;26.83;;
22146;SDS011;13074;48.298;14.424;2024-01-11T13:29:07;61.00;;;26.80;;
22146;SDS011;13074;48.298;14.424;2024-01-11T13:34:59;55.93;;;26.93;;
22146;SDS011;13074;48.298;14.424;2024-01-11T13:37:31;57.87;;;26.30;;
22146;SDS011;13074;48.298;14.424;2024-01-11T13:40:28;51.73;;;26.20;;
22146;SDS011;13074;48.298;14.424;2024-01-11T13:42:58;52.63;;;27.20;;
22146;SDS011;13074;48.298;14.424;2024-01-11T13:45:33;61.37;;;28.13;;
22146;SDS011;13074;48.298;14.424;2024-01-11T13:48:23;55.07;;;27.67;;
22146;SDS011;13074;48.298;14.424;2024-01-11T13:50:56;59.23;;;27.10;;
22146;SDS011;13074;48.298;14.424;2024-01-11T13:53:28;61.27;;;28.70;;
22146;SDS011;13074;48.298;14.424;2024-01-11T13:56:13;56.77;;;28.63;;
22146;SDS011;13074;48.298;14.424;2024-01-11T13:58:50;64.20;;;29.00;;
22146;SDS011;13074;48.298;14.424;2024-01-11T14:04:36;61.77;;;30.60;;
22146;SDS011;13074;48.298;14.424;2024-01-11T14:07:27;63.07;;;30.27;;
22146;SDS011;13074;48.298;14.424;2024-01-11T14:10:19;68.40;;;28.73;;
22146;SDS011;13074;48.298;14.424;2024-01-11T14:12:56;62.70;;;30.27;;
22146;SDS011;13074;48.298;14.424;2024-01-11T14:16:04;64.10;;;29.47;;
22146;SDS011;13074;48.298;14.424;2024-01-11T14:18:35;77.27;;;33.80;;
22146;SDS011;13074;48.298;14.424;2024-01-11T14:24:32;68.33;;;30.53;;
22146;SDS011;13074;48.298;14.424;2024-01-11T14:27:03;71.57;;;32.03;;
22146;SDS011;13074;48.298;14.424;2024-01-11T14:29:41;68.43;;;32.13;;
22146;SDS011;13074;48.298;14.424;2024-01-11T14:32:10;64.87;;;31.20;;
22146;SDS011;13074;48.298;14.424;2024-01-11T14:38:07;73.17;;;30.63;;
22146;SDS011;13074;48.298;14.424;2024-01-11T14:57:03;64.67;;;30.00;;
22146;SDS011;13074;48.298;14.424;2024-01-11T19:02:43;81.70;;;35.87;;
22146;SDS011;13074;48.298;14.424;2024-01-11T19:08:45;90.60;;;37.00;;
22146;SDS011;13074;48.298;14.424;2024-01-11T19:11:51;95.40;;;38.60;;
22146;SDS011;13074;48.298;14.424;2024-01-11T19:14:40;89.37;;;36.77;;
22146;SDS011;13074;48.298;14.424;2024-01-11T19:30:17;87.67;;;37.67;;
22146;SDS011;13074;48.298;14.424;2024-01-11T19:33:21;85.80;;;35.10;;
22146;SDS011;13074;48.298;14.424;2024-01-11T19:36:09;221.50;;;104.30;;
22146;SDS011;13074;48.298;14.424;2024-01-11T19:53:00;103.03;;;45.30;;
22146;SDS011;13074;48.298;14.424;2024-01-11T19:55:40;129.27;;;56.50;;
22146;SDS011;13074;48.298;14.424;2024-01-11T19:58:41;138.43;;;57.87;;
22146;SDS011;13074;48.298;14.424;2024-01-11T20:04:37;211.03;;;104.03;;
22146;SDS011;13074;48.298;14.424;2024-01-11T20:23:30;76.63;;;35.20;;
22146;SDS011;13074;48.298;14.424;2024-01-11T20:26:39;83.30;;;38.10;;
22146;SDS011;13074;48.298;14.424;2024-01-11T20:33:05;91.07;;;37.23;;
22146;SDS011;13074;48.298;14.424;2024-01-11T20:35:41;85.97;;;37.40;;
22146;SDS011;13074;48.298;14.424;2024-01-11T20:41:39;75.47;;;36.33;;
22146;SDS011;13074;48.298;14.424;2024-01-11T20:44:43;84.63;;;35.80;;
22146;SDS011;13074;48.298;14.424;2024-01-11T20:47:34;76.23;;;35.53;;
22146;SDS011;13074;48.298;14.424;2024-01-11T20:50:39;80.87;;;37.60;;
22146;SDS011;13074;48.298;14.424;2024-01-11T20:53:22;83.63;;;38.73;;
22146;SDS011;13074;48.298;14.424;2024-01-11T21:00:10;92.97;;;37.23;;
22146;SDS011;13074;48.298;14.424;2024-01-11T21:03:10;86.47;;;34.77;;
22146;SDS011;13074;48.298;14.424;2024-01-11T21:06:13;84.63;;;37.23;;
22146;SDS011;13074;48.298;14.424;2024-01-11T21:09:32;80.87;;;36.03;;
22146;SDS011;13074;48.298;14.424;2024-01-11T21:12:40;79.27;;;34.83;;
22146;SDS011;13074;48.298;14.424;2024-01-11T21:22:21;79.43;;;36.23;;
22146;SDS011;13074;48.298;14.424;2024-01-11T21:25:08;92.60;;;35.73;;
22146;SDS011;13074;48.298;14.424;2024-01-11T21:30:36;97.00;;;39.97;;
22146;SDS011;13074;48.298;14.424;2024-01-11T21:33:23;85.37;;;35.77;;
22146;SDS011;13074;48.298;14.424;2024-01-11T21:44:30;81.73;;;35.00;;
22146;SDS011;13074;48.298;14.424;2024-01-11T21:47:10;95.73;;;40.03;;
22146;SDS011;13074;48.298;14.424;2024-01-11T21:50:12;86.57;;;34.80;;
22146;SDS011;13074;48.298;14.424;2024-01-11T21:53:23;79.67;;;34.20;;
22146;SDS011;13074;48.298;14.424;2024-01-11T21:56:03;91.30;;;34.90;;
22146;SDS011;13074;48.298;14.424;2024-01-11T21:59:04;86.97;;;35.60;;
22146;SDS011;13074;48.298;14.424;2024-01-11T22:01:53;77.47;;;35.17;;
22146;SDS011;13074;48.298;14.424;2024-01-11T22:04:26;79.40;;;34.23;;
22146;SDS011;13074;48.298;14.424;2024-01-11T22:10:41;82.27;;;35.77;;
22146;SDS011;13074;48.298;14.424;2024-01-11T22:13:24;91.83;;;35.90;;
22146;SDS011;13074;48.298;14.424;2024-01-11T22:22:02;90.23;;;37.00;;
22146;SDS011;13074;48.298;14.424;2024-01-11T22:24:46;92.33;;;36.00;;
22146;SDS011;13074;48.298;14.424;2024-01-11T22:27:21;80.60;;;32.90;;
22146;SDS011;13074;48.298;14.424;2024-01-11T22:30:11;87.67;;;36.07;;
22146;SDS011;13074;48.298;14.424;2024-01-11T22:32:58;92.20;;;35.43;;
22146;SDS011;13074;48.298;14.424;2024-01-11T22:39:02;89.47;;;34.57;;
22146;SDS011;13074;48.298;14.424;2024-01-11T22:42:02;84.90;;;33.27;;